sensor_id;sensor_type;location;lat;lon;timestamp;pressure;altitude;pressure_sealevel;temperature;humidity
12868;BME280;33517;49.866;8.320;2023-04-08T00:02:04;100877.72;;;9.30;88.59
12868;BME280;33517;49.866;8.320;2023-04-08T00:04:56;100890.19;;;9.28;88.71
12868;BME280;33517;49.866;8.320;2023-04-08T00:07:48;100887.66;;;9.26;87.69
12868;BME280;33517;49.866;8.320;2023-04-08T00:10:40;100886.88;;;9.26;88.22
12868;BME280;33517;49.866;8.320;2023-04-08T00:13:32;100886.19;;;9.24;87.80
12868;BME280;33517;49.866;8.320;2023-04-08T00:16:24;100883.81;;;9.21;89.35
12868;BME280;33517;49.866;8.320;2023-04-08T00:19:17;100895.59;;;9.17;88.91
12868;BME280;33517;49.866;8.320;2023-04-08T00:22:09;100892.28;;;9.15;88.87
12868;BME280;33517;49.866;8.320;2023-04-08T00:25:01;100894.22;;;9.13;89.46
12868;BME280;33517;49.866;8.320;2023-04-08T00:27:56;100894.66;;;9.08;89.20
12868;BME280;33517;49.866;8.320;2023-04-08T00:30:48;100892.72;;;9.10;88.54
12868;BME280;33517;49.866;8.320;2023-04-08T00:33:41;100890.63;;;9.14;88.63
12868;BME280;33517;49.866;8.320;2023-04-08T00:36:34;100892.97;;;9.17;89.42
12868;BME280;33517;49.866;8.320;2023-04-08T00:39:26;100898.47;;;9.23;89.50
12868;BME280;33517;49.866;8.320;2023-04-08T00:42:18;100892.13;;;9.26;89.24
12868;BME280;33517;49.866;8.320;2023-04-08T00:45:10;100891.97;;;9.27;88.62
12868;BME280;33517;49.866;8.320;2023-04-08T00:48:03;100894.19;;;9.22;89.07
12868;BME280;33517;49.866;8.320;2023-04-08T00:50:55;100892.66;;;9.29;90.33
12868;BME280;33517;49.866;8.320;2023-04-08T00:53:48;100892.19;;;9.34;90.18
12868;BME280;33517;49.866;8.320;2023-04-08T00:56:42;100894.59;;;9.27;90.40
12868;BME280;33517;49.866;8.320;2023-04-08T00:59:35;100889.19;;;9.29;89.93
12868;BME280;33517;49.866;8.320;2023-04-08T01:02:30;100894.28;;;9.30;90.73
12868;BME280;33517;49.866;8.320;2023-04-08T01:05:27;100898.28;;;9.35;89.63
12868;BME280;33517;49.866;8.320;2023-04-08T01:08:22;100896.19;;;9.38;90.29
12868;BME280;33517;49.866;8.320;2023-04-08T01:11:19;100891.09;;;9.37;89.87
12868;BME280;33517;49.866;8.320;2023-04-08T01:14:19;100894.56;;;9.37;89.45
12868;BME280;33517;49.866;8.320;2023-04-08T01:17:11;100900.50;;;9.39;89.76
12868;BME280;33517;49.866;8.320;2023-04-08T01:20:04;100899.81;;;9.37;90.25
12868;BME280;33517;49.866;8.320;2023-04-08T01:23:04;100890.41;;;9.35;90.48
12868;BME280;33517;49.866;8.320;2023-04-08T01:26:00;100897.75;;;9.31;90.43
12868;BME280;33517;49.866;8.320;2023-04-08T01:28:53;100897.06;;;9.29;90.44
12868;BME280;33517;49.866;8.320;2023-04-08T01:31:47;100895.44;;;9.28;90.50
12868;BME280;33517;49.866;8.320;2023-04-08T01:34:40;100902.75;;;9.24;90.38
12868;BME280;33517;49.866;8.320;2023-04-08T01:37:32;100904.16;;;9.19;90.88
12868;BME280;33517;49.866;8.320;2023-04-08T01:40:25;100895.47;;;9.18;89.66
12868;BME280;33517;49.866;8.320;2023-04-08T01:43:18;100896.56;;;9.16;90.39
12868;BME280;33517;49.866;8.320;2023-04-08T01:46:12;100894.38;;;9.11;90.23
12868;BME280;33517;49.866;8.320;2023-04-08T01:49:05;100892.72;;;9.10;90.22
12868;BME280;33517;49.866;8.320;2023-04-08T01:51:58;100893.53;;;9.11;90.86
12868;BME280;33517;49.866;8.320;2023-04-08T01:54:51;100891.91;;;9.10;91.08
12868;BME280;33517;49.866;8.320;2023-04-08T01:57:47;100891.75;;;9.11;91.26
12868;BME280;33517;49.866;8.320;2023-04-08T02:00:41;100891.31;;;9.16;90.18
12868;BME280;33517;49.866;8.320;2023-04-08T02:03:34;100890.75;;;9.22;90.16
12868;BME280;33517;49.866;8.320;2023-04-08T02:06:27;100897.91;;;9.29;89.94
12868;BME280;33517;49.866;8.320;2023-04-08T02:09:19;100890.03;;;9.29;90.45
12868;BME280;33517;49.866;8.320;2023-04-08T02:12:11;100894.44;;;9.29;89.81
12868;BME280;33517;49.866;8.320;2023-04-08T02:15:04;100890.28;;;9.26;90.05
12868;BME280;33517;49.866;8.320;2023-04-08T02:18:02;100893.38;;;9.22;90.69
12868;BME280;33517;49.866;8.320;2023-04-08T02:21:03;100898.09;;;9.18;90.28
12868;BME280;33517;49.866;8.320;2023-04-08T02:23:58;100894.47;;;9.19;91.11
12868;BME280;33517;49.866;8.320;2023-04-08T02:26:54;100901.53;;;9.19;90.53
12868;BME280;33517;49.866;8.320;2023-04-08T02:29:48;100905.81;;;9.20;90.61
12868;BME280;33517;49.866;8.320;2023-04-08T02:32:41;100902.50;;;9.18;90.58
12868;BME280;33517;49.866;8.320;2023-04-08T02:35:35;100900.31;;;9.13;91.51
12868;BME280;33517;49.866;8.320;2023-04-08T02:38:28;100895.75;;;9.15;91.52
12868;BME280;33517;49.866;8.320;2023-04-08T02:41:20;100895.19;;;9.12;91.45
12868;BME280;33517;49.866;8.320;2023-04-08T02:44:12;100897.69;;;9.13;91.79
12868;BME280;33517;49.866;8.320;2023-04-08T02:47:04;100900.72;;;9.18;91.23
12868;BME280;33517;49.866;8.320;2023-04-08T02:49:55;100906.34;;;9.23;89.99
12868;BME280;33517;49.866;8.320;2023-04-08T02:52:49;100901.09;;;9.23;90.79
12868;BME280;33517;49.866;8.320;2023-04-08T02:55:41;100904.03;;;9.20;90.51
12868;BME280;33517;49.866;8.320;2023-04-08T02:58:33;100902.34;;;9.19;90.60
12868;BME280;33517;49.866;8.320;2023-04-08T03:01:25;100901.66;;;9.17;91.20
12868;BME280;33517;49.866;8.320;2023-04-08T03:04:16;100906.53;;;9.12;90.39
12868;BME280;33517;49.866;8.320;2023-04-08T03:07:08;100904.88;;;9.11;91.18
12868;BME280;33517;49.866;8.320;2023-04-08T03:10:02;100903.22;;;9.10;90.79
12868;BME280;33517;49.866;8.320;2023-04-08T03:12:55;100914.56;;;9.01;91.33
12868;BME280;33517;49.866;8.320;2023-04-08T03:15:46;100912.81;;;8.92;91.82
12868;BME280;33517;49.866;8.320;2023-04-08T03:18:38;100910.66;;;8.78;91.47
12868;BME280;33517;49.866;8.320;2023-04-08T03:21:30;100909.56;;;8.62;91.41
12868;BME280;33517;49.866;8.320;2023-04-08T03:24:22;100910.00;;;8.48;90.91
12868;BME280;33517;49.866;8.320;2023-04-08T03:27:15;100915.81;;;8.32;92.73
12868;BME280;33517;49.866;8.320;2023-04-08T03:30:07;100922.09;;;8.20;92.42
12868;BME280;33517;49.866;8.320;2023-04-08T03:33:00;100919.47;;;8.10;91.84
12868;BME280;33517;49.866;8.320;2023-04-08T03:35:53;100926.94;;;8.05;91.79
12868;BME280;33517;49.866;8.320;2023-04-08T03:38:45;100922.47;;;7.96;93.25
12868;BME280;33517;49.866;8.320;2023-04-08T03:41:37;100925.78;;;7.89;93.26
12868;BME280;33517;49.866;8.320;2023-04-08T03:44:30;100920.66;;;7.78;93.02
12868;BME280;33517;49.866;8.320;2023-04-08T03:47:22;100926.84;;;7.67;92.99
12868;BME280;33517;49.866;8.320;2023-04-08T03:50:14;100936.72;;;7.54;93.66
12868;BME280;33517;49.866;8.320;2023-04-08T03:53:05;100936.69;;;7.44;92.99
12868;BME280;33517;49.866;8.320;2023-04-08T03:56:00;100941.88;;;7.35;93.46
12868;BME280;33517;49.866;8.320;2023-04-08T03:58:54;100938.97;;;7.28;93.51
12868;BME280;33517;49.866;8.320;2023-04-08T04:01:47;100948.03;;;7.24;93.75
12868;BME280;33517;49.866;8.320;2023-04-08T04:04:40;100939.06;;;7.17;93.95
12868;BME280;33517;49.866;8.320;2023-04-08T04:07:32;100944.81;;;7.11;93.68
12868;BME280;33517;49.866;8.320;2023-04-08T04:10:24;100943.94;;;7.01;93.94
12868;BME280;33517;49.866;8.320;2023-04-08T04:13:16;100943.72;;;6.93;93.90
12868;BME280;33517;49.866;8.320;2023-04-08T04:16:09;100943.53;;;6.85;93.94
12868;BME280;33517;49.866;8.320;2023-04-08T04:19:02;100949.41;;;6.78;93.89
12868;BME280;33517;49.866;8.320;2023-04-08T04:21:54;100949.13;;;6.71;94.79
12868;BME280;33517;49.866;8.320;2023-04-08T04:24:46;100952.50;;;6.62;94.16
12868;BME280;33517;49.866;8.320;2023-04-08T04:27:38;100951.19;;;6.57;94.24
12868;BME280;33517;49.866;8.320;2023-04-08T04:30:30;100953.22;;;6.53;95.15
12868;BME280;33517;49.866;8.320;2023-04-08T04:33:22;100951.25;;;6.45;95.48
12868;BME280;33517;49.866;8.320;2023-04-08T04:36:15;100958.88;;;6.37;94.71
12868;BME280;33517;49.866;8.320;2023-04-08T04:39:07;100958.56;;;6.31;94.88
12868;BME280;33517;49.866;8.320;2023-04-08T04:41:59;100959.19;;;6.23;95.48
12868;BME280;33517;49.866;8.320;2023-04-08T04:44:52;100965.03;;;6.16;94.71
12868;BME280;33517;49.866;8.320;2023-04-08T04:47:45;100963.75;;;6.10;94.69
12868;BME280;33517;49.866;8.320;2023-04-08T04:50:36;100960.53;;;6.07;94.78
12868;BME280;33517;49.866;8.320;2023-04-08T04:53:30;100971.09;;;6.05;94.66
12868;BME280;33517;49.866;8.320;2023-04-08T04:56:22;100964.47;;;6.01;94.51
12868;BME280;33517;49.866;8.320;2023-04-08T04:59:13;100964.59;;;6.00;94.81
12868;BME280;33517;49.866;8.320;2023-04-08T05:02:05;100976.94;;;5.98;94.47
12868;BME280;33517;49.866;8.320;2023-04-08T05:04:57;100981.44;;;5.96;93.93
12868;BME280;33517;49.866;8.320;2023-04-08T05:07:49;100976.47;;;5.93;94.61
12868;BME280;33517;49.866;8.320;2023-04-08T05:10:42;100980.75;;;5.94;94.40
12868;BME280;33517;49.866;8.320;2023-04-08T05:13:34;100972.09;;;5.93;94.37
12868;BME280;33517;49.866;8.320;2023-04-08T05:16:26;100984.06;;;5.96;94.70
12868;BME280;33517;49.866;8.320;2023-04-08T05:19:17;100985.59;;;5.98;94.45
12868;BME280;33517;49.866;8.320;2023-04-08T05:22:09;100996.63;;;6.02;94.44
12868;BME280;33517;49.866;8.320;2023-04-08T05:25:01;100995.44;;;6.06;94.46
12868;BME280;33517;49.866;8.320;2023-04-08T05:27:54;100989.75;;;6.12;94.28
12868;BME280;33517;49.866;8.320;2023-04-08T05:30:48;100990.59;;;6.44;93.93
12868;BME280;33517;49.866;8.320;2023-04-08T05:33:40;100990.91;;;7.33;92.06
12868;BME280;33517;49.866;8.320;2023-04-08T05:36:31;100986.72;;;8.30;87.81
12868;BME280;33517;49.866;8.320;2023-04-08T05:39:23;100986.16;;;8.84;85.98
12868;BME280;33517;49.866;8.320;2023-04-08T05:42:15;100988.53;;;8.87;84.71
12868;BME280;33517;49.866;8.320;2023-04-08T05:45:09;100998.47;;;8.46;85.88
12868;BME280;33517;49.866;8.320;2023-04-08T05:48:01;100998.72;;;8.81;87.13
12868;BME280;33517;49.866;8.320;2023-04-08T05:50:53;100997.78;;;8.82;85.27
12868;BME280;33517;49.866;8.320;2023-04-08T05:53:45;101003.78;;;9.11;85.84
12868;BME280;33517;49.866;8.320;2023-04-08T05:56:37;100997.81;;;10.29;83.41
12868;BME280;33517;49.866;8.320;2023-04-08T05:59:29;101007.44;;;11.42;79.53
12868;BME280;33517;49.866;8.320;2023-04-08T06:02:22;101009.94;;;11.69;78.06
12868;BME280;33517;49.866;8.320;2023-04-08T06:05:14;101005.28;;;13.19;74.60
12868;BME280;33517;49.866;8.320;2023-04-08T06:08:05;101006.97;;;13.66;71.62
12868;BME280;33517;49.866;8.320;2023-04-08T06:10:57;101017.41;;;14.45;70.81
12868;BME280;33517;49.866;8.320;2023-04-08T06:13:49;101022.59;;;15.58;67.41
12868;BME280;33517;49.866;8.320;2023-04-08T06:16:41;101021.50;;;16.32;66.01
12868;BME280;33517;49.866;8.320;2023-04-08T06:19:34;101025.28;;;14.31;69.25
12868;BME280;33517;49.866;8.320;2023-04-08T06:22:26;101036.47;;;12.59;74.74
12868;BME280;33517;49.866;8.320;2023-04-08T06:25:19;101030.72;;;13.04;73.80
12868;BME280;33517;49.866;8.320;2023-04-08T06:28:10;101041.97;;;13.22;71.84
12868;BME280;33517;49.866;8.320;2023-04-08T06:31:02;101038.34;;;13.15;73.06
12868;BME280;33517;49.866;8.320;2023-04-08T06:33:54;101049.53;;;13.01;73.84
12868;BME280;33517;49.866;8.320;2023-04-08T06:36:47;101056.88;;;12.49;75.13
12868;BME280;33517;49.866;8.320;2023-04-08T06:39:41;101063.38;;;11.79;77.19
12868;BME280;33517;49.866;8.320;2023-04-08T06:42:33;101059.94;;;11.35;78.18
12868;BME280;33517;49.866;8.320;2023-04-08T06:45:27;101053.22;;;11.15;79.44
12868;BME280;33517;49.866;8.320;2023-04-08T06:48:19;101055.31;;;11.80;78.13
12868;BME280;33517;49.866;8.320;2023-04-08T06:51:13;101050.47;;;12.10;76.11
12868;BME280;33517;49.866;8.320;2023-04-08T06:54:06;101060.88;;;11.77;77.01
12868;BME280;33517;49.866;8.320;2023-04-08T06:56:59;101062.56;;;11.78;77.87
12868;BME280;33517;49.866;8.320;2023-04-08T06:59:51;101064.53;;;11.76;77.11
12868;BME280;33517;49.866;8.320;2023-04-08T07:02:43;101059.63;;;11.64;77.87
12868;BME280;33517;49.866;8.320;2023-04-08T07:05:35;101067.03;;;11.35;78.81
12868;BME280;33517;49.866;8.320;2023-04-08T07:08:28;101066.47;;;11.05;79.17
12868;BME280;33517;49.866;8.320;2023-04-08T07:11:21;101066.84;;;10.93;79.80
12868;BME280;33517;49.866;8.320;2023-04-08T07:14:13;101071.22;;;10.84;79.79
12868;BME280;33517;49.866;8.320;2023-04-08T07:17:05;101074.81;;;11.01;79.86
12868;BME280;33517;49.866;8.320;2023-04-08T07:19:56;101074.97;;;11.17;79.17
12868;BME280;33517;49.866;8.320;2023-04-08T07:22:49;101070.78;;;11.32;78.92
12868;BME280;33517;49.866;8.320;2023-04-08T07:25:40;101077.84;;;11.49;78.57
12868;BME280;33517;49.866;8.320;2023-04-08T07:28:34;101084.34;;;11.63;78.58
12868;BME280;33517;49.866;8.320;2023-04-08T07:31:26;101082.38;;;11.65;78.54
12868;BME280;33517;49.866;8.320;2023-04-08T07:34:17;101083.16;;;11.57;78.40
12868;BME280;33517;49.866;8.320;2023-04-08T07:37:09;101089.63;;;11.63;78.85
12868;BME280;33517;49.866;8.320;2023-04-08T07:40:01;101091.00;;;11.67;78.67
12868;BME280;33517;49.866;8.320;2023-04-08T07:42:53;101094.38;;;11.77;78.39
12868;BME280;33517;49.866;8.320;2023-04-08T07:45:47;101096.84;;;11.61;78.64
12868;BME280;33517;49.866;8.320;2023-04-08T07:48:38;101095.97;;;11.52;78.84
12868;BME280;33517;49.866;8.320;2023-04-08T07:51:30;101098.84;;;11.41;78.83
12868;BME280;33517;49.866;8.320;2023-04-08T07:54:23;101103.16;;;11.42;78.94
12868;BME280;33517;49.866;8.320;2023-04-08T07:57:15;101103.41;;;11.57;78.93
12868;BME280;33517;49.866;8.320;2023-04-08T08:00:07;101102.22;;;11.51;78.23
12868;BME280;33517;49.866;8.320;2023-04-08T08:03:01;101105.88;;;11.58;78.08
12868;BME280;33517;49.866;8.320;2023-04-08T08:05:53;101108.19;;;11.79;77.61
12868;BME280;33517;49.866;8.320;2023-04-08T08:08:45;101115.47;;;11.85;77.61
12868;BME280;33517;49.866;8.320;2023-04-08T08:11:37;101122.22;;;12.05;77.08
12868;BME280;33517;49.866;8.320;2023-04-08T08:14:29;101126.50;;;12.40;75.68
12868;BME280;33517;49.866;8.320;2023-04-08T08:17:21;101123.25;;;12.62;76.10
12868;BME280;33517;49.866;8.320;2023-04-08T08:20:15;101125.84;;;12.54;74.72
12868;BME280;33517;49.866;8.320;2023-04-08T08:23:07;101127.69;;;12.53;75.35
12868;BME280;33517;49.866;8.320;2023-04-08T08:25:59;101121.63;;;12.77;74.95
12868;BME280;33517;49.866;8.320;2023-04-08T08:28:51;101122.06;;;13.14;74.08
12868;BME280;33517;49.866;8.320;2023-04-08T08:31:43;101124.34;;;13.81;72.13
12868;BME280;33517;49.866;8.320;2023-04-08T08:34:35;101126.91;;;14.14;70.66
12868;BME280;33517;49.866;8.320;2023-04-08T08:37:29;101132.47;;;14.35;69.70
12868;BME280;33517;49.866;8.320;2023-04-08T08:40:21;101132.91;;;14.54;69.44
12868;BME280;33517;49.866;8.320;2023-04-08T08:43:12;101133.88;;;14.53;68.85
12868;BME280;33517;49.866;8.320;2023-04-08T08:46:07;101136.13;;;14.64;69.41
12868;BME280;33517;49.866;8.320;2023-04-08T08:49:01;101138.56;;;14.74;69.01
12868;BME280;33517;49.866;8.320;2023-04-08T08:51:53;101139.31;;;15.13;67.42
12868;BME280;33517;49.866;8.320;2023-04-08T08:54:47;101145.03;;;15.25;66.59
12868;BME280;33517;49.866;8.320;2023-04-08T08:57:39;101145.38;;;15.22;66.90
12868;BME280;33517;49.866;8.320;2023-04-08T09:00:31;101145.09;;;14.94;66.53
12868;BME280;33517;49.866;8.320;2023-04-08T09:03:24;101153.53;;;14.67;66.95
12868;BME280;33517;49.866;8.320;2023-04-08T09:06:17;101147.97;;;14.54;66.14
12868;BME280;33517;49.866;8.320;2023-04-08T09:09:10;101154.22;;;14.06;67.10
12868;BME280;33517;49.866;8.320;2023-04-08T09:12:03;101154.41;;;13.88;67.75
12868;BME280;33517;49.866;8.320;2023-04-08T09:15:03;101153.94;;;13.85;68.09
12868;BME280;33517;49.866;8.320;2023-04-08T09:17:55;101160.38;;;13.82;66.89
12868;BME280;33517;49.866;8.320;2023-04-08T09:20:51;101160.25;;;13.76;67.84
12868;BME280;33517;49.866;8.320;2023-04-08T09:23:44;101154.78;;;13.69;67.74
12868;BME280;33517;49.866;8.320;2023-04-08T09:26:36;101167.16;;;13.69;67.83
12868;BME280;33517;49.866;8.320;2023-04-08T09:29:31;101169.97;;;13.75;68.03
12868;BME280;33517;49.866;8.320;2023-04-08T09:32:45;101166.69;;;13.65;68.08
12868;BME280;33517;49.866;8.320;2023-04-08T09:35:37;101172.44;;;13.69;68.41
12868;BME280;33517;49.866;8.320;2023-04-08T09:38:29;101165.84;;;13.65;67.24
12868;BME280;33517;49.866;8.320;2023-04-08T09:41:21;101169.00;;;13.52;67.05
12868;BME280;33517;49.866;8.320;2023-04-08T09:44:14;101164.84;;;13.50;67.59
12868;BME280;33517;49.866;8.320;2023-04-08T09:47:13;101171.66;;;13.60;66.41
12868;BME280;33517;49.866;8.320;2023-04-08T09:50:08;101175.09;;;13.77;66.38
12868;BME280;33517;49.866;8.320;2023-04-08T09:53:04;101172.94;;;13.97;65.78
12868;BME280;33517;49.866;8.320;2023-04-08T09:56:01;101174.22;;;14.09;65.21
12868;BME280;33517;49.866;8.320;2023-04-08T09:58:58;101168.56;;;14.20;65.11
12868;BME280;33517;49.866;8.320;2023-04-08T10:01:54;101171.06;;;14.13;64.42
12868;BME280;33517;49.866;8.320;2023-04-08T10:04:51;101172.38;;;14.17;65.00
12868;BME280;33517;49.866;8.320;2023-04-08T10:07:46;101166.34;;;14.47;65.42
12868;BME280;33517;49.866;8.320;2023-04-08T10:10:40;101169.25;;;14.60;63.82
12868;BME280;33517;49.866;8.320;2023-04-08T10:13:33;101176.09;;;14.86;63.78
12868;BME280;33517;49.866;8.320;2023-04-08T10:16:25;101167.22;;;15.01;62.43
12868;BME280;33517;49.866;8.320;2023-04-08T10:19:38;101173.22;;;15.48;62.64
12868;BME280;33517;49.866;8.320;2023-04-08T10:22:56;101171.56;;;15.25;60.95
12868;BME280;33517;49.866;8.320;2023-04-08T10:25:48;101171.19;;;15.05;61.96
12868;BME280;33517;49.866;8.320;2023-04-08T10:28:40;101164.16;;;14.90;62.10
12868;BME280;33517;49.866;8.320;2023-04-08T10:31:38;101174.69;;;14.75;61.95
12868;BME280;33517;49.866;8.320;2023-04-08T10:34:30;101172.22;;;14.73;62.58
12868;BME280;33517;49.866;8.320;2023-04-08T10:37:22;101170.94;;;14.92;61.55
12868;BME280;33517;49.866;8.320;2023-04-08T10:40:19;101167.59;;;15.21;60.95
12868;BME280;33517;49.866;8.320;2023-04-08T10:43:12;101168.84;;;15.33;60.47
12868;BME280;33517;49.866;8.320;2023-04-08T10:46:04;101167.97;;;15.40;58.68
12868;BME280;33517;49.866;8.320;2023-04-08T10:48:58;101169.66;;;15.79;59.12
12868;BME280;33517;49.866;8.320;2023-04-08T10:51:51;101163.44;;;16.01;58.50
12868;BME280;33517;49.866;8.320;2023-04-08T10:54:46;101166.47;;;16.12;56.89
12868;BME280;33517;49.866;8.320;2023-04-08T10:57:40;101172.53;;;16.35;57.15
12868;BME280;33517;49.866;8.320;2023-04-08T11:00:33;101165.22;;;16.52;55.04
12868;BME280;33517;49.866;8.320;2023-04-08T11:03:26;101160.63;;;16.96;53.69
12868;BME280;33517;49.866;8.320;2023-04-08T11:06:18;101157.72;;;18.03;53.02
12868;BME280;33517;49.866;8.320;2023-04-08T11:09:10;101158.38;;;18.87;50.40
12868;BME280;33517;49.866;8.320;2023-04-08T11:12:02;101155.16;;;18.57;50.54
12868;BME280;33517;49.866;8.320;2023-04-08T11:14:56;101156.66;;;17.98;50.17
12868;BME280;33517;49.866;8.320;2023-04-08T11:17:48;101163.84;;;17.48;50.88
12868;BME280;33517;49.866;8.320;2023-04-08T11:20:42;101172.31;;;17.16;51.12
12868;BME280;33517;49.866;8.320;2023-04-08T11:23:34;101169.19;;;16.92;51.44
12868;BME280;33517;49.866;8.320;2023-04-08T11:26:26;101164.94;;;16.62;51.45
12868;BME280;33517;49.866;8.320;2023-04-08T11:29:19;101165.84;;;16.54;52.00
12868;BME280;33517;49.866;8.320;2023-04-08T11:32:13;101161.72;;;16.37;51.80
12868;BME280;33517;49.866;8.320;2023-04-08T11:35:06;101154.28;;;16.47;51.84
12868;BME280;33517;49.866;8.320;2023-04-08T11:37:58;101152.31;;;16.49;51.64
12868;BME280;33517;49.866;8.320;2023-04-08T11:40:53;101154.41;;;16.53;52.00
12868;BME280;33517;49.866;8.320;2023-04-08T11:43:55;101153.59;;;16.53;51.83
12868;BME280;33517;49.866;8.320;2023-04-08T11:46:53;101159.16;;;16.43;52.94
12868;BME280;33517;49.866;8.320;2023-04-08T11:49:48;101158.59;;;16.33;52.38
12868;BME280;33517;49.866;8.320;2023-04-08T11:52:44;101155.22;;;16.10;51.79
12868;BME280;33517;49.866;8.320;2023-04-08T11:55:37;101145.97;;;16.35;52.29
12868;BME280;33517;49.866;8.320;2023-04-08T11:58:29;101142.41;;;16.93;51.33
12868;BME280;33517;49.866;8.320;2023-04-08T12:01:21;101134.19;;;17.52;50.22
12868;BME280;33517;49.866;8.320;2023-04-08T12:04:13;101136.09;;;18.19;49.93
12868;BME280;33517;49.866;8.320;2023-04-08T12:07:06;101137.41;;;18.36;49.52
12868;BME280;33517;49.866;8.320;2023-04-08T12:09:58;101131.41;;;18.28;48.58
12868;BME280;33517;49.866;8.320;2023-04-08T12:12:50;101130.38;;;18.63;48.43
12868;BME280;33517;49.866;8.320;2023-04-08T12:15:43;101125.38;;;20.05;46.74
12868;BME280;33517;49.866;8.320;2023-04-08T12:18:35;101127.19;;;22.66;43.43
12868;BME280;33517;49.866;8.320;2023-04-08T12:21:27;101134.81;;;23.10;39.32
12868;BME280;33517;49.866;8.320;2023-04-08T12:24:20;101127.91;;;21.82;41.56
12868;BME280;33517;49.866;8.320;2023-04-08T12:27:12;101137.59;;;20.90;42.45
12868;BME280;33517;49.866;8.320;2023-04-08T12:30:05;101134.44;;;19.85;43.96
12868;BME280;33517;49.866;8.320;2023-04-08T12:32:57;101139.31;;;18.96;44.68
12868;BME280;33517;49.866;8.320;2023-04-08T12:35:49;101134.75;;;18.36;45.28
12868;BME280;33517;49.866;8.320;2023-04-08T12:38:41;101126.72;;;17.96;46.80
12868;BME280;33517;49.866;8.320;2023-04-08T12:41:34;101127.81;;;17.74;47.40
12868;BME280;33517;49.866;8.320;2023-04-08T12:44:26;101120.31;;;17.56;48.09
12868;BME280;33517;49.866;8.320;2023-04-08T12:47:18;101124.19;;;18.15;47.77
12868;BME280;33517;49.866;8.320;2023-04-08T12:50:10;101114.75;;;18.54;46.85
12868;BME280;33517;49.866;8.320;2023-04-08T12:53:02;101123.31;;;18.96;45.70
12868;BME280;33517;49.866;8.320;2023-04-08T12:55:54;101118.50;;;18.66;46.61
12868;BME280;33517;49.866;8.320;2023-04-08T12:58:48;101116.84;;;18.24;46.81
12868;BME280;33517;49.866;8.320;2023-04-08T13:01:41;101119.78;;;18.01;46.72
12868;BME280;33517;49.866;8.320;2023-04-08T13:04:32;101120.75;;;17.87;47.27
12868;BME280;33517;49.866;8.320;2023-04-08T13:07:24;101112.53;;;17.33;47.12
12868;BME280;33517;49.866;8.320;2023-04-08T13:10:16;101118.09;;;17.17;48.68
12868;BME280;33517;49.866;8.320;2023-04-08T13:13:08;101120.84;;;17.03;49.60
12868;BME280;33517;49.866;8.320;2023-04-08T13:16:02;101116.19;;;17.32;49.28
12868;BME280;33517;49.866;8.320;2023-04-08T13:18:54;101110.38;;;17.71;48.47
12868;BME280;33517;49.866;8.320;2023-04-08T13:21:46;101118.22;;;17.79;48.42
12868;BME280;33517;49.866;8.320;2023-04-08T13:24:38;101112.41;;;17.69;48.09
12868;BME280;33517;49.866;8.320;2023-04-08T13:27:30;101110.44;;;17.50;49.26
12868;BME280;33517;49.866;8.320;2023-04-08T13:30:22;101110.09;;;17.38;48.92
12868;BME280;33517;49.866;8.320;2023-04-08T13:33:15;101116.59;;;17.29;48.73
12868;BME280;33517;49.866;8.320;2023-04-08T13:36:07;101117.44;;;17.36;49.34
12868;BME280;33517;49.866;8.320;2023-04-08T13:38:59;101123.16;;;17.33;49.67
12868;BME280;33517;49.866;8.320;2023-04-08T13:41:50;101126.91;;;17.39;49.14
12868;BME280;33517;49.866;8.320;2023-04-08T13:44:43;101123.97;;;17.34;49.33
12868;BME280;33517;49.866;8.320;2023-04-08T13:47:35;101118.72;;;17.40;49.49
12868;BME280;33517;49.866;8.320;2023-04-08T13:50:28;101115.63;;;17.37;48.99
12868;BME280;33517;49.866;8.320;2023-04-08T13:53:20;101118.19;;;18.07;49.22
12868;BME280;33517;49.866;8.320;2023-04-08T13:56:12;101113.84;;;18.40;48.79
12868;BME280;33517;49.866;8.320;2023-04-08T13:59:03;101116.31;;;18.35;49.08
12868;BME280;33517;49.866;8.320;2023-04-08T14:01:55;101108.41;;;18.48;47.67
12868;BME280;33517;49.866;8.320;2023-04-08T14:04:47;101107.06;;;18.37;47.88
12868;BME280;33517;49.866;8.320;2023-04-08T14:07:40;101111.31;;;17.85;48.34
12868;BME280;33517;49.866;8.320;2023-04-08T14:10:32;101115.03;;;17.63;48.35
12868;BME280;33517;49.866;8.320;2023-04-08T14:13:24;101102.34;;;17.16;49.51
12868;BME280;33517;49.866;8.320;2023-04-08T14:16:16;101103.72;;;17.12;49.72
12868;BME280;33517;49.866;8.320;2023-04-08T14:19:08;101108.47;;;17.37;50.47
12868;BME280;33517;49.866;8.320;2023-04-08T14:22:00;101104.22;;;17.64;49.37
12868;BME280;33517;49.866;8.320;2023-04-08T14:24:53;101101.19;;;18.08;49.70
12868;BME280;33517;49.866;8.320;2023-04-08T14:27:45;101099.91;;;17.97;49.76
12868;BME280;33517;49.866;8.320;2023-04-08T14:30:37;101099.75;;;17.71;49.62
12868;BME280;33517;49.866;8.320;2023-04-08T14:33:29;101099.38;;;17.53;50.36
12868;BME280;33517;49.866;8.320;2023-04-08T14:36:21;101102.13;;;17.38;50.32
12868;BME280;33517;49.866;8.320;2023-04-08T14:39:14;101103.72;;;17.12;50.60
12868;BME280;33517;49.866;8.320;2023-04-08T14:42:07;101110.56;;;17.00;50.40
12868;BME280;33517;49.866;8.320;2023-04-08T14:44:59;101111.91;;;16.75;51.27
12868;BME280;33517;49.866;8.320;2023-04-08T14:47:51;101114.00;;;16.58;51.84
12868;BME280;33517;49.866;8.320;2023-04-08T14:50:43;101113.34;;;16.41;51.90
12868;BME280;33517;49.866;8.320;2023-04-08T14:53:35;101122.72;;;16.23;52.16
12868;BME280;33517;49.866;8.320;2023-04-08T14:56:26;101117.75;;;15.76;52.85
12868;BME280;33517;49.866;8.320;2023-04-08T14:59:20;101116.84;;;15.69;53.78
12868;BME280;33517;49.866;8.320;2023-04-08T15:02:11;101121.41;;;15.75;53.58
12868;BME280;33517;49.866;8.320;2023-04-08T15:05:04;101118.84;;;15.82;54.11
12868;BME280;33517;49.866;8.320;2023-04-08T15:07:56;101112.91;;;15.80;53.99
12868;BME280;33517;49.866;8.320;2023-04-08T15:10:48;101115.66;;;15.86;54.06